sensor_id;sensor_type;location;lat;lon;timestamp;pressure;altitude;pressure_sealevel;temperature;humidity
8641;BME280;4358;42.100;25.222;2024-01-30T00:00:27;102328.06;;;-0.25;100.00
8641;BME280;4358;42.100;25.222;2024-01-30T00:02:54;102335.19;;;-0.15;100.00
8641;BME280;4358;42.100;25.222;2024-01-30T00:05:22;102329.25;;;-0.05;100.00
8641;BME280;4358;42.100;25.222;2024-01-30T00:07:49;102334.41;;;-0.09;100.00
8641;BME280;4358;42.100;25.222;2024-01-30T00:10:16;102336.31;;;-0.01;100.00
8641;BME280;4358;42.100;25.222;2024-01-30T00:12:43;102333.75;;;0.04;100.00
8641;BME280;4358;42.100;25.222;2024-01-30T00:15:10;102343.19;;;-0.04;100.00
8641;BME280;4358;42.100;25.222;2024-01-30T00:17:37;102348.00;;;-0.30;100.00
8641;BME280;4358;42.100;25.222;2024-01-30T00:20:05;102337.38;;;-0.42;100.00
8641;BME280;4358;42.100;25.222;2024-01-30T00:22:34;102342.16;;;-0.66;100.00
8641;BME280;4358;42.100;25.222;2024-01-30T00:25:00;102344.66;;;-0.72;100.00
8641;BME280;4358;42.100;25.222;2024-01-30T00:27:27;102339.53;;;-0.68;100.00
8641;BME280;4358;42.100;25.222;2024-01-30T00:29:54;102343.03;;;-0.66;100.00
8641;BME280;4358;42.100;25.222;2024-01-30T00:32:21;102341.34;;;-0.64;100.00
8641;BME280;4358;42.100;25.222;2024-01-30T00:34:48;102342.16;;;-0.66;100.00
8641;BME280;4358;42.100;25.222;2024-01-30T00:37:15;102346.50;;;-0.68;100.00
8641;BME280;4358;42.100;25.222;2024-01-30T00:39:43;102344.38;;;-0.89;100.00
8641;BME280;4358;42.100;25.222;2024-01-30T00:42:10;102347.75;;;-0.95;100.00
8641;BME280;4358;42.100;25.222;2024-01-30T00:44:37;102346.81;;;-0.97;100.00
8641;BME280;4358;42.100;25.222;2024-01-30T00:47:04;102359.19;;;-0.87;100.00
8641;BME280;4358;42.100;25.222;2024-01-30T00:49:31;102361.00;;;-0.84;100.00
8641;BME280;4358;42.100;25.222;2024-01-30T00:51:58;102360.34;;;-0.71;100.00
8641;BME280;4358;42.100;25.222;2024-01-30T00:54:24;102357.88;;;-0.63;100.00
8641;BME280;4358;42.100;25.222;2024-01-30T00:56:53;102359.56;;;-0.65;100.00
8641;BME280;4358;42.100;25.222;2024-01-30T00:59:19;102357.00;;;-0.64;100.00
8641;BME280;4358;42.100;25.222;2024-01-30T01:01:46;102356.78;;;-0.76;100.00
8641;BME280;4358;42.100;25.222;2024-01-30T01:04:13;102359.53;;;-0.68;100.00
8641;BME280;4358;42.100;25.222;2024-01-30T01:06:40;102351.97;;;-0.52;100.00
8641;BME280;4358;42.100;25.222;2024-01-30T01:09:09;102353.03;;;-0.42;100.00
8641;BME280;4358;42.100;25.222;2024-01-30T01:11:36;102354.03;;;-0.34;100.00
8641;BME280;4358;42.100;25.222;2024-01-30T01:14:05;102356.75;;;-0.28;100.00
8641;BME280;4358;42.100;25.222;2024-01-30T01:16:33;102348.13;;;-0.21;100.00
8641;BME280;4358;42.100;25.222;2024-01-30T01:18:59;102352.44;;;-0.24;100.00
8641;BME280;4358;42.100;25.222;2024-01-30T01:21:26;102349.81;;;-0.26;100.00
8641;BME280;4358;42.100;25.222;2024-01-30T01:23:53;102347.28;;;-0.21;100.00
8641;BME280;4358;42.100;25.222;2024-01-30T01:26:20;102336.75;;;-0.27;100.00
8641;BME280;4358;42.100;25.222;2024-01-30T01:28:47;102347.13;;;-0.30;100.00
8641;BME280;4358;42.100;25.222;2024-01-30T01:31:15;102345.53;;;-0.21;100.00
8641;BME280;4358;42.100;25.222;2024-01-30T01:33:43;102340.94;;;-0.37;100.00
8641;BME280;4358;42.100;25.222;2024-01-30T01:36:09;102340.94;;;-0.35;100.00
8641;BME280;4358;42.100;25.222;2024-01-30T01:38:36;102342.50;;;-0.48;100.00
8641;BME280;4358;42.100;25.222;2024-01-30T01:41:03;102338.13;;;-0.49;100.00
8641;BME280;4358;42.100;25.222;2024-01-30T01:43:30;102334.59;;;-0.53;100.00
8641;BME280;4358;42.100;25.222;2024-01-30T01:45:57;102335.44;;;-0.52;100.00
8641;BME280;4358;42.100;25.222;2024-01-30T01:48:26;102336.31;;;-0.53;100.00
8641;BME280;4358;42.100;25.222;2024-01-30T01:50:53;102332.00;;;-0.51;100.00
8641;BME280;4358;42.100;25.222;2024-01-30T01:53:20;102342.59;;;-0.42;100.00
8641;BME280;4358;42.100;25.222;2024-01-30T01:55:47;102342.69;;;-0.36;100.00
8641;BME280;4358;42.100;25.222;2024-01-30T01:58:14;102343.56;;;-0.35;100.00
8641;BME280;4358;42.100;25.222;2024-01-30T02:00:41;102338.50;;;-0.25;100.00
8641;BME280;4358;42.100;25.222;2024-01-30T02:03:10;102341.13;;;-0.25;100.00
8641;BME280;4358;42.100;25.222;2024-01-30T02:05:39;102333.28;;;-0.26;100.00
8641;BME280;4358;42.100;25.222;2024-01-30T02:08:08;102334.06;;;-0.32;100.00
8641;BME280;4358;42.100;25.222;2024-01-30T02:10:35;102340.00;;;-0.40;100.00
8641;BME280;4358;42.100;25.222;2024-01-30T02:13:02;102338.44;;;-0.80;100.00
8641;BME280;4358;42.100;25.222;2024-01-30T02:15:30;102327.16;;;-0.79;100.00
8641;BME280;4358;42.100;25.222;2024-01-30T02:17:57;102331.88;;;-1.07;100.00
8641;BME280;4358;42.100;25.222;2024-01-30T02:20:24;102336.84;;;-1.19;100.00
8641;BME280;4358;42.100;25.222;2024-01-30T02:22:54;102333.50;;;-1.12;100.00
8641;BME280;4358;42.100;25.222;2024-01-30T02:25:30;102333.63;;;-1.06;100.00
8641;BME280;4358;42.100;25.222;2024-01-30T02:27:57;102331.00;;;-1.07;100.00
8641;BME280;4358;42.100;25.222;2024-01-30T02:30:24;102331.16;;;-0.98;100.00
8641;BME280;4358;42.100;25.222;2024-01-30T02:32:51;102336.41;;;-0.97;100.00
8641;BME280;4358;42.100;25.222;2024-01-30T02:35:17;102333.13;;;-0.87;100.00
8641;BME280;4358;42.100;25.222;2024-01-30T02:37:44;102328.00;;;-0.80;100.00
8641;BME280;4358;42.100;25.222;2024-01-30T02:40:12;102335.81;;;-0.82;100.00
8641;BME280;4358;42.100;25.222;2024-01-30T02:42:39;102339.22;;;-0.86;100.00
8641;BME280;4358;42.100;25.222;2024-01-30T02:45:08;102336.31;;;-1.01;100.00
8641;BME280;4358;42.100;25.222;2024-01-30T02:47:35;102331.78;;;-1.11;100.00
8641;BME280;4358;42.100;25.222;2024-01-30T02:50:02;102334.97;;;-1.24;100.00
8641;BME280;4358;42.100;25.222;2024-01-30T02:52:28;102334.06;;;-1.28;100.00
8641;BME280;4358;42.100;25.222;2024-01-30T02:54:55;102321.91;;;-1.27;100.00
8641;BME280;4358;42.100;25.222;2024-01-30T02:57:24;102335.69;;;-1.33;100.00
8641;BME280;4358;42.100;25.222;2024-01-30T02:59:51;102325.53;;;-1.21;100.00
8641;BME280;4358;42.100;25.222;2024-01-30T03:02:18;102320.41;;;-1.15;100.00
8641;BME280;4358;42.100;25.222;2024-01-30T03:04:44;102320.44;;;-1.13;100.00
8641;BME280;4358;42.100;25.222;2024-01-30T03:07:11;102321.41;;;-1.08;100.00
8641;BME280;4358;42.100;25.222;2024-01-30T03:09:38;102322.38;;;-1.05;100.00
8641;BME280;4358;42.100;25.222;2024-01-30T03:12:06;102324.16;;;-0.99;100.00
8641;BME280;4358;42.100;25.222;2024-01-30T03:14:34;102327.69;;;-0.97;100.00
8641;BME280;4358;42.100;25.222;2024-01-30T03:17:01;102325.16;;;-0.93;100.00
8641;BME280;4358;42.100;25.222;2024-01-30T03:19:28;102321.03;;;-0.81;100.00
8641;BME280;4358;42.100;25.222;2024-01-30T03:21:54;102321.19;;;-0.72;100.00
8641;BME280;4358;42.100;25.222;2024-01-30T03:24:22;102314.44;;;-0.61;100.00
8641;BME280;4358;42.100;25.222;2024-01-30T03:26:48;102313.75;;;-0.50;100.00
8641;BME280;4358;42.100;25.222;2024-01-30T03:29:15;102310.41;;;-0.43;100.00
8641;BME280;4358;42.100;25.222;2024-01-30T03:31:43;102300.91;;;-0.39;100.00
8641;BME280;4358;42.100;25.222;2024-01-30T03:34:10;102316.66;;;-0.33;100.00
8641;BME280;4358;42.100;25.222;2024-01-30T03:36:37;102320.13;;;-0.32;100.00
8641;BME280;4358;42.100;25.222;2024-01-30T03:39:04;102311.56;;;-0.24;100.00
8641;BME280;4358;42.100;25.222;2024-01-30T03:41:31;102309.88;;;-0.22;100.00
8641;BME280;4358;42.100;25.222;2024-01-30T03:43:58;102310.69;;;-0.24;100.00
8641;BME280;4358;42.100;25.222;2024-01-30T03:46:25;102307.19;;;-0.26;100.00
8641;BME280;4358;42.100;25.222;2024-01-30T03:48:53;102311.69;;;-0.15;100.00
8641;BME280;4358;42.100;25.222;2024-01-30T03:51:20;102313.59;;;-0.06;100.00
8641;BME280;4358;42.100;25.222;2024-01-30T03:53:47;102308.53;;;0.05;100.00
8641;BME280;4358;42.100;25.222;2024-01-30T03:56:14;102274.22;;;-0.21;100.00
8641;BME280;4358;42.100;25.222;2024-01-30T03:58:41;102299.75;;;-0.01;100.00
8641;BME280;4358;42.100;25.222;2024-01-30T04:01:12;102307.59;;;-0.01;100.00
8641;BME280;4358;42.100;25.222;2024-01-30T04:03:39;102304.97;;;0.01;100.00
8641;BME280;4358;42.100;25.222;2024-01-30T04:06:07;102307.59;;;0.01;100.00
8641;BME280;4358;42.100;25.222;2024-01-30T04:08:34;102302.53;;;0.13;100.00
8641;BME280;4358;42.100;25.222;2024-01-30T04:11:03;102296.53;;;0.19;100.00
8641;BME280;4358;42.100;25.222;2024-01-30T04:13:31;102304.38;;;0.22;100.00
8641;BME280;4358;42.100;25.222;2024-01-30T04:15:59;102301.84;;;0.28;100.00
8641;BME280;4358;42.100;25.222;2024-01-30T04:18:25;102301.03;;;0.30;100.00
8641;BME280;4358;42.100;25.222;2024-01-30T04:20:52;102296.81;;;0.40;100.00
8641;BME280;4358;42.100;25.222;2024-01-30T04:23:20;102306.34;;;0.36;100.00
8641;BME280;4358;42.100;25.222;2024-01-30T04:25:47;102304.59;;;0.37;100.00
8641;BME280;4358;42.100;25.222;2024-01-30T04:28:14;102317.72;;;0.43;100.00
8641;BME280;4358;42.100;25.222;2024-01-30T04:30:41;102310.63;;;0.31;100.00
8641;BME280;4358;42.100;25.222;2024-01-30T04:33:08;102313.38;;;0.40;100.00
8641;BME280;4358;42.100;25.222;2024-01-30T04:35:34;102279.16;;;0.21;100.00
8641;BME280;4358;42.100;25.222;2024-01-30T04:38:02;102313.44;;;0.48;100.00
8641;BME280;4358;42.100;25.222;2024-01-30T04:40:30;102317.88;;;0.52;100.00
8641;BME280;4358;42.100;25.222;2024-01-30T04:42:57;102317.91;;;0.55;100.00
8641;BME280;4358;42.100;25.222;2024-01-30T04:45:24;102328.38;;;0.57;100.00
8641;BME280;4358;42.100;25.222;2024-01-30T04:47:50;102320.59;;;0.64;100.00
8641;BME280;4358;42.100;25.222;2024-01-30T04:50:17;102330.19;;;0.62;100.00
8641;BME280;4358;42.100;25.222;2024-01-30T04:52:44;102328.50;;;0.67;100.00
8641;BME280;4358;42.100;25.222;2024-01-30T04:55:11;102327.66;;;0.70;100.00
8641;BME280;4358;42.100;25.222;2024-01-30T04:57:39;102324.16;;;0.69;100.00
8641;BME280;4358;42.100;25.222;2024-01-30T05:00:07;102328.56;;;0.73;100.00
8641;BME280;4358;42.100;25.222;2024-01-30T05:02:34;102329.50;;;0.78;100.00
8641;BME280;4358;42.100;25.222;2024-01-30T05:05:01;102325.13;;;0.79;100.00
8641;BME280;4358;42.100;25.222;2024-01-30T05:07:28;102321.59;;;0.72;100.00
8641;BME280;4358;42.100;25.222;2024-01-30T05:09:54;102326.81;;;0.72;100.00
8641;BME280;4358;42.100;25.222;2024-01-30T05:12:21;102329.47;;;0.75;100.00
8641;BME280;4358;42.100;25.222;2024-01-30T05:14:50;102324.28;;;0.78;100.00
8641;BME280;4358;42.100;25.222;2024-01-30T05:17:16;102325.03;;;0.70;100.00
8641;BME280;4358;42.100;25.222;2024-01-30T05:19:43;102327.63;;;0.67;100.00
8641;BME280;4358;42.100;25.222;2024-01-30T05:22:10;102330.25;;;0.68;100.00
8641;BME280;4358;42.100;25.222;2024-01-30T05:24:40;102330.25;;;0.70;100.00
8641;BME280;4358;42.100;25.222;2024-01-30T05:27:07;102336.25;;;0.60;100.00
8641;BME280;4358;42.100;25.222;2024-01-30T05:29:34;102338.91;;;0.64;100.00
8641;BME280;4358;42.100;25.222;2024-01-30T05:32:02;102332.03;;;0.71;100.00
8641;BME280;4358;42.100;25.222;2024-01-30T05:34:29;102327.72;;;0.73;100.00
8641;BME280;4358;42.100;25.222;2024-01-30T05:36:56;102344.19;;;0.67;100.00
8641;BME280;4358;42.100;25.222;2024-01-30T05:39:23;102345.91;;;0.68;100.00
8641;BME280;4358;42.100;25.222;2024-01-30T05:41:50;102345.84;;;0.61;100.00
8641;BME280;4358;42.100;25.222;2024-01-30T05:44:16;102343.06;;;0.47;100.00
8641;BME280;4358;42.100;25.222;2024-01-30T05:46:43;102346.50;;;0.45;100.00
8641;BME280;4358;42.100;25.222;2024-01-30T05:49:11;102358.81;;;0.55;100.00
8641;BME280;4358;42.100;25.222;2024-01-30T05:51:38;102352.81;;;0.63;100.00
8641;BME280;4358;42.100;25.222;2024-01-30T05:54:05;102352.69;;;0.51;100.00
8641;BME280;4358;42.100;25.222;2024-01-30T05:56:31;102354.34;;;0.45;100.00
8641;BME280;4358;42.100;25.222;2024-01-30T05:58:58;102355.25;;;0.48;100.00
8641;BME280;4358;42.100;25.222;2024-01-30T06:01:25;102355.34;;;0.56;100.00
8641;BME280;4358;42.100;25.222;2024-01-30T06:03:51;102358.88;;;0.59;100.00
8641;BME280;4358;42.100;25.222;2024-01-30T06:06:20;102357.22;;;0.66;100.00
8641;BME280;4358;42.100;25.222;2024-01-30T06:08:46;102356.41;;;0.70;100.00
8641;BME280;4358;42.100;25.222;2024-01-30T06:11:13;102360.84;;;0.75;100.00
8641;BME280;4358;42.100;25.222;2024-01-30T06:13:40;102361.75;;;0.77;100.00
8641;BME280;4358;42.100;25.222;2024-01-30T06:16:09;102346.06;;;0.80;100.00
8641;BME280;4358;42.100;25.222;2024-01-30T06:18:36;102347.91;;;0.88;100.00
8641;BME280;4358;42.100;25.222;2024-01-30T06:21:04;102343.44;;;0.79;100.00
8641;BME280;4358;42.100;25.222;2024-01-30T06:23:32;102336.47;;;0.78;100.00
8641;BME280;4358;42.100;25.222;2024-01-30T06:25:59;102342.63;;;0.83;100.00
8641;BME280;4358;42.100;25.222;2024-01-30T06:28:26;102354.75;;;0.76;100.00
8641;BME280;4358;42.100;25.222;2024-01-30T06:30:53;102361.75;;;0.80;100.00
8641;BME280;4358;42.100;25.222;2024-01-30T06:33:19;102356.50;;;0.77;100.00
8641;BME280;4358;42.100;25.222;2024-01-30T06:35:46;102349.47;;;0.72;100.00
8641;BME280;4358;42.100;25.222;2024-01-30T06:38:13;102356.50;;;0.77;100.00
8641;BME280;4358;42.100;25.222;2024-01-30T06:40:42;102355.56;;;0.72;100.00
8641;BME280;4358;42.100;25.222;2024-01-30T06:43:09;102352.16;;;0.78;100.00
8641;BME280;4358;42.100;25.222;2024-01-30T06:45:36;102357.31;;;0.72;100.00
8641;BME280;4358;42.100;25.222;2024-01-30T06:48:04;102361.81;;;0.83;100.00
8641;BME280;4358;42.100;25.222;2024-01-30T06:50:31;102353.09;;;0.84;100.00
8641;BME280;4358;42.100;25.222;2024-01-30T06:52:57;102359.19;;;0.83;100.00
8641;BME280;4358;42.100;25.222;2024-01-30T06:55:24;102355.75;;;0.88;100.00
8641;BME280;4358;42.100;25.222;2024-01-30T06:57:52;102358.31;;;0.84;100.00
8641;BME280;4358;42.100;25.222;2024-01-30T07:00:19;102361.00;;;0.91;100.00
8641;BME280;4358;42.100;25.222;2024-01-30T07:02:46;102359.28;;;0.91;100.00
8641;BME280;4358;42.100;25.222;2024-01-30T07:05:13;102361.06;;;0.94;100.00
8641;BME280;4358;42.100;25.222;2024-01-30T07:07:40;102362.78;;;0.92;100.00
8641;BME280;4358;42.100;25.222;2024-01-30T07:10:08;102364.56;;;0.94;100.00
8641;BME280;4358;42.100;25.222;2024-01-30T07:12:35;102370.63;;;0.92;100.00
8641;BME280;4358;42.100;25.222;2024-01-30T07:15:04;102363.63;;;0.91;100.00
8641;BME280;4358;42.100;25.222;2024-01-30T07:17:33;102372.28;;;0.87;100.00
8641;BME280;4358;42.100;25.222;2024-01-30T07:20:00;102373.09;;;0.81;100.00
8641;BME280;4358;42.100;25.222;2024-01-30T07:22:28;102372.13;;;0.71;100.00
8641;BME280;4358;42.100;25.222;2024-01-30T07:24:55;102376.50;;;0.75;100.00
8641;BME280;4358;42.100;25.222;2024-01-30T07:27:22;102375.59;;;0.70;100.00
8641;BME280;4358;42.100;25.222;2024-01-30T07:29:49;102376.50;;;0.75;100.00
8641;BME280;4358;42.100;25.222;2024-01-30T07:32:17;102381.78;;;0.78;100.00
8641;BME280;4358;42.100;25.222;2024-01-30T07:34:44;102373.94;;;0.80;100.00
8641;BME280;4358;42.100;25.222;2024-01-30T07:37:11;102380.03;;;0.77;100.00
8641;BME280;4358;42.100;25.222;2024-01-30T07:39:40;102372.28;;;0.87;100.00
8641;BME280;4358;42.100;25.222;2024-01-30T07:42:07;102374.06;;;0.88;100.00
8641;BME280;4358;42.100;25.222;2024-01-30T07:44:34;102371.38;;;0.84;100.00
8641;BME280;4358;42.100;25.222;2024-01-30T07:47:01;102364.44;;;0.85;100.00
8641;BME280;4358;42.100;25.222;2024-01-30T07:49:29;102363.56;;;0.86;100.00
8641;BME280;4358;42.100;25.222;2024-01-30T07:51:56;102367.06;;;0.87;100.00
8641;BME280;4358;42.100;25.222;2024-01-30T07:54:23;102366.25;;;0.91;100.00
8641;BME280;4358;42.100;25.222;2024-01-30T07:56:50;102362.78;;;0.93;100.00
8641;BME280;4358;42.100;25.222;2024-01-30T07:59:16;102362.81;;;0.96;100.00
8641;BME280;4358;42.100;25.222;2024-01-30T08:01:45;102373.31;;;0.98;100.00
8641;BME280;4358;42.100;25.222;2024-01-30T08:04:11;102361.09;;;1.00;100.00
8641;BME280;4358;42.100;25.222;2024-01-30T08:06:39;102362.88;;;1.01;100.00
8641;BME280;4358;42.100;25.222;2024-01-30T08:09:06;102369.03;;;1.04;100.00
8641;BME280;4358;42.100;25.222;2024-01-30T08:11:33;102359.41;;;1.03;100.00
8641;BME280;4358;42.100;25.222;2024-01-30T08:14:00;102371.69;;;1.10;100.00
8641;BME280;4358;42.100;25.222;2024-01-30T08:16:27;102373.44;;;1.11;100.00
8641;BME280;4358;42.100;25.222;2024-01-30T08:18:54;102370.84;;;1.10;100.00
8641;BME280;4358;42.100;25.222;2024-01-30T08:21:23;102369.09;;;1.12;100.00
8641;BME280;4358;42.100;25.222;2024-01-30T08:23:51;102374.41;;;1.21;100.00
8641;BME280;4358;42.100;25.222;2024-01-30T08:26:18;102373.63;;;1.25;100.00
8641;BME280;4358;42.100;25.222;2024-01-30T08:28:45;102370.13;;;1.24;100.00
8641;BME280;4358;42.100;25.222;2024-01-30T08:31:12;102370.16;;;1.29;100.00
8641;BME280;4358;42.100;25.222;2024-01-30T08:33:38;102369.28;;;1.28;100.00
8641;BME280;4358;42.100;25.222;2024-01-30T08:36:06;102373.75;;;1.39;100.00
8641;BME280;4358;42.100;25.222;2024-01-30T08:38:32;102372.03;;;1.41;100.00
8641;BME280;4358;42.100;25.222;2024-01-30T08:41:01;102374.56;;;1.36;100.00
8641;BME280;4358;42.100;25.222;2024-01-30T08:43:28;102384.22;;;1.40;100.00
8641;BME280;4358;42.100;25.222;2024-01-30T08:45:54;102387.72;;;1.41;100.00
8641;BME280;4358;42.100;25.222;2024-01-30T08:48:22;102382.47;;;1.39;100.00
8641;BME280;4358;42.100;25.222;2024-01-30T08:50:50;102385.09;;;1.42;100.00
8641;BME280;4358;42.100;25.222;2024-01-30T08:53:17;102386.91;;;1.46;100.00
8641;BME280;4358;42.100;25.222;2024-01-30T08:55:44;102389.53;;;1.48;100.00
8641;BME280;4358;42.100;25.222;2024-01-30T08:58:12;102384.31;;;1.52;100.00
8641;BME280;4358;42.100;25.222;2024-01-30T09:00:40;102393.94;;;1.53;100.00
8641;BME280;4358;42.100;25.222;2024-01-30T09:03:07;102393.09;;;1.57;100.00
8641;BME280;4358;42.100;25.222;2024-01-30T09:05:34;102392.28;;;1.61;100.00
8641;BME280;4358;42.100;25.222;2024-01-30T09:08:01;102392.28;;;1.61;100.00
8641;BME280;4358;42.100;25.222;2024-01-30T09:10:28;102393.19;;;1.65;100.00
8641;BME280;4358;42.100;25.222;2024-01-30T09:12:54;102387.06;;;1.64;100.00
8641;BME280;4358;42.100;25.222;2024-01-30T09:15:23;102384.50;;;1.69;100.00
8641;BME280;4358;42.100;25.222;2024-01-30T09:17:49;102391.53;;;1.76;100.00
8641;BME280;4358;42.100;25.222;2024-01-30T09:20:16;102393.34;;;1.83;100.00
8641;BME280;4358;42.100;25.222;2024-01-30T09:22:45;102385.47;;;1.82;100.00
8641;BME280;4358;42.100;25.222;2024-01-30T09:25:12;102389.88;;;1.89;100.00
8641;BME280;4358;42.100;25.222;2024-01-30T09:27:39;102385.59;;;1.97;100.00
8641;BME280;4358;42.100;25.222;2024-01-30T09:30:07;102390.84;;;2.00;100.00
8641;BME280;4358;42.100;25.222;2024-01-30T09:32:35;102387.41;;;2.07;100.00
8641;BME280;4358;42.100;25.222;2024-01-30T09:35:02;102383.94;;;2.08;100.00
8641;BME280;4358;42.100;25.222;2024-01-30T09:37:29;102378.69;;;2.08;100.00
8641;BME280;4358;42.100;25.222;2024-01-30T09:39:56;102375.28;;;2.18;100.00
8641;BME280;4358;42.100;25.222;2024-01-30T09:42:29;102363.09;;;2.23;100.00
8641;BME280;4358;42.100;25.222;2024-01-30T09:44:59;102359.63;;;2.30;100.00
8641;BME280;4358;42.100;25.222;2024-01-30T09:47:26;102350.06;;;2.38;100.00
8641;BME280;4358;42.100;25.222;2024-01-30T09:49:55;102352.66;;;2.32;100.00
8641;BME280;4358;42.100;25.222;2024-01-30T09:52:23;102351.81;;;2.38;100.00
8641;BME280;4358;42.100;25.222;2024-01-30T09:54:51;102343.91;;;2.30;100.00
8641;BME280;4358;42.100;25.222;2024-01-30T09:57:18;102348.25;;;2.31;100.00
8641;BME280;4358;42.100;25.222;2024-01-30T09:59:46;102344.81;;;2.35;100.00
8641;BME280;4358;42.100;25.222;2024-01-30T10:02:13;102356.22;;;2.48;100.00
8641;BME280;4358;42.100;25.222;2024-01-30T10:04:41;102351.88;;;2.53;100.00
8641;BME280;4358;42.100;25.222;2024-01-30T10:07:10;102348.44;;;2.62;100.00
8641;BME280;4358;42.100;25.222;2024-01-30T10:09:38;102336.25;;;2.76;100.00
8641;BME280;4358;42.100;25.222;2024-01-30T10:12:05;102341.50;;;2.83;100.00
8641;BME280;4358;42.100;25.222;2024-01-30T10:14:33;102338.03;;;2.89;100.00
8641;BME280;4358;42.100;25.222;2024-01-30T10:17:01;102327.56;;;2.90;100.00
8641;BME280;4358;42.100;25.222;2024-01-30T10:19:28;102327.56;;;2.92;100.00
8641;BME280;4358;42.100;25.222;2024-01-30T10:21:55;102320.53;;;2.88;100.00
8641;BME280;4358;42.100;25.222;2024-01-30T10:24:25;102314.44;;;2.92;100.00
8641;BME280;4358;42.100;25.222;2024-01-30T10:26:53;102326.72;;;3.02;100.00
8641;BME280;4358;42.100;25.222;2024-01-30T10:29:19;102325.00;;;3.13;100.00
8641;BME280;4358;42.100;25.222;2024-01-30T10:31:46;102318.00;;;3.12;100.00
8641;BME280;4358;42.100;25.222;2024-01-30T10:34:23;102312.75;;;3.18;100.00
8641;BME280;4358;42.100;25.222;2024-01-30T10:36:50;102304.00;;;3.19;100.00
8641;BME280;4358;42.100;25.222;2024-01-30T10:39:22;102309.25;;;3.25;100.00
8641;BME280;4358;42.100;25.222;2024-01-30T10:41:54;102302.28;;;3.33;100.00
8641;BME280;4358;42.100;25.222;2024-01-30T10:44:22;102308.41;;;3.32;100.00
8641;BME280;4358;42.100;25.222;2024-01-30T10:46:56;102312.75;;;3.35;100.00
8641;BME280;4358;42.100;25.222;2024-01-30T10:49:27;102311.91;;;3.45;100.00
8641;BME280;4358;42.100;25.222;2024-01-30T10:51:55;102305.78;;;3.38;100.00
8641;BME280;4358;42.100;25.222;2024-01-30T10:54:24;102312.78;;;3.44;100.00
8641;BME280;4358;42.100;25.222;2024-01-30T10:56:53;102308.41;;;3.45;100.00
8641;BME280;4358;42.100;25.222;2024-01-30T10:59:22;102307.53;;;3.49;100.00
8641;BME280;4358;42.100;25.222;2024-01-30T11:01:50;102304.88;;;3.56;100.00
8641;BME280;4358;42.100;25.222;2024-01-30T11:04:17;102298.75;;;3.68;100.00
8641;BME280;4358;42.100;25.222;2024-01-30T11:06:44;102300.50;;;3.72;100.00
8641;BME280;4358;42.100;25.222;2024-01-30T11:09:11;102299.66;;;3.74;100.00
8641;BME280;4358;42.100;25.222;2024-01-30T11:11:56;102302.25;;;3.73;100.00
8641;BME280;4358;42.100;25.222;2024-01-30T11:14:26;102305.78;;;3.75;100.00
8641;BME280;4358;42.100;25.222;2024-01-30T11:16:56;102297.88;;;3.79;100.00
8641;BME280;4358;42.100;25.222;2024-01-30T11:19:23;102263.75;;;3.76;100.00
8641;BME280;4358;42.100;25.222;2024-01-30T11:21:52;102278.59;;;3.91;100.00
8641;BME280;4358;42.100;25.222;2024-01-30T11:24:20;102274.22;;;3.90;100.00
8641;BME280;4358;42.100;25.222;2024-01-30T11:26:48;102277.69;;;4.04;100.00
8641;BME280;4358;42.100;25.222;2024-01-30T11:29:18;102289.94;;;4.08;100.00
8641;BME280;4358;42.100;25.222;2024-01-30T11:31:54;102288.19;;;4.10;100.00
8641;BME280;4358;42.100;25.222;2024-01-30T11:34:21;102284.69;;;4.17;100.00
8641;BME280;4358;42.100;25.222;2024-01-30T11:36:52;102290.78;;;4.19;100.00
8641;BME280;4358;42.100;25.222;2024-01-30T11:39:20;102275.00;;;4.25;100.00
8641;BME280;4358;42.100;25.222;2024-01-30T11:41:50;102275.84;;;4.35;100.00
8641;BME280;4358;42.100;25.222;2024-01-30T11:44:19;102267.06;;;4.41;100.00
8641;BME280;4358;42.100;25.222;2024-01-30T11:46:47;102274.91;;;4.51;100.00
8641;BME280;4358;42.100;25.222;2024-01-30T11:49:14;102266.19;;;4.43;99.03
8641;BME280;4358;42.100;25.222;2024-01-30T11:51:42;102266.13;;;4.54;98.96
8641;BME280;4358;42.100;25.222;2024-01-30T11:54:09;102261.69;;;4.63;99.23
8641;BME280;4358;42.100;25.222;2024-01-30T11:56:36;102256.44;;;4.65;98.26
8641;BME280;4358;42.100;25.222;2024-01-30T11:59:04;102247.63;;;4.67;98.11
8641;BME280;4358;42.100;25.222;2024-01-30T12:01:33;102240.66;;;4.62;97.40
8641;BME280;4358;42.100;25.222;2024-01-30T12:04:00;102236.22;;;4.67;98.20
8641;BME280;4358;42.100;25.222;2024-01-30T12:06:27;102229.28;;;4.60;96.35
8641;BME280;4358;42.100;25.222;2024-01-30T12:08:57;102222.28;;;4.51;96.56
8641;BME280;4358;42.100;25.222;2024-01-30T12:11:25;102211.75;;;4.56;96.68
8641;BME280;4358;42.100;25.222;2024-01-30T12:13:52;102210.00;;;4.56;96.77
8641;BME280;4358;42.100;25.222;2024-01-30T12:16:19;102206.47;;;4.57;96.84
8641;BME280;4358;42.100;25.222;2024-01-30T12:18:48;102208.22;;;4.61;96.12
8641;BME280;4358;42.100;25.222;2024-01-30T12:21:16;102203.84;;;4.56;95.10
8641;BME280;4358;42.100;25.222;2024-01-30T12:23:43;102199.47;;;4.58;95.58
8641;BME280;4358;42.100;25.222;2024-01-30T12:26:11;102178.47;;;4.52;95.72
8641;BME280;4358;42.100;25.222;2024-01-30T12:28:47;102200.34;;;4.60;96.16
8641;BME280;4358;42.100;25.222;2024-01-30T12:31:14;102197.66;;;4.71;96.58
8641;BME280;4358;42.100;25.222;2024-01-30T12:33:41;102201.06;;;4.82;95.88
8641;BME280;4358;42.100;25.222;2024-01-30T12:36:09;102206.28;;;4.89;94.42
8641;BME280;4358;42.100;25.222;2024-01-30T12:38:37;102215.94;;;4.87;94.66
8641;BME280;4358;42.100;25.222;2024-01-30T12:41:07;102217.72;;;4.82;94.11
8641;BME280;4358;42.100;25.222;2024-01-30T12:43:33;102216.00;;;4.81;92.87
8641;BME280;4358;42.100;25.222;2024-01-30T12:46:00;102216.00;;;4.78;92.53
8641;BME280;4358;42.100;25.222;2024-01-30T12:48:28;102212.47;;;4.84;93.30
8641;BME280;4358;42.100;25.222;2024-01-30T12:50:55;102214.19;;;4.88;92.87
8641;BME280;4358;42.100;25.222;2024-01-30T12:53:23;102216.81;;;4.91;91.27
8641;BME280;4358;42.100;25.222;2024-01-30T12:55:50;102208.91;;;4.89;92.59
8641;BME280;4358;42.100;25.222;2024-01-30T12:58:18;102206.31;;;4.86;92.83